createdAt,value
2018-08-12T00:01:40.638Z,14.84
2018-08-12T00:04:09.212Z,14.83
2018-08-12T00:06:37.970Z,14.91
2018-08-12T00:09:09.369Z,14.93
2018-08-12T00:11:37.979Z,14.86
2018-08-12T00:14:06.760Z,14.91
2018-08-12T00:16:35.961Z,14.85
2018-08-12T00:19:04.760Z,14.68
2018-08-12T00:21:33.570Z,14.50
2018-08-12T00:24:02.096Z,14.50
2018-08-12T00:26:30.698Z,14.53
2018-08-12T00:28:59.423Z,14.48
2018-08-12T00:31:27.933Z,14.47
2018-08-12T00:33:56.657Z,14.55
2018-08-12T00:36:25.309Z,14.58
2018-08-12T00:38:53.961Z,14.64
2018-08-12T00:41:22.492Z,14.60
2018-08-12T00:43:51.138Z,14.61
2018-08-12T00:46:19.949Z,14.56
2018-08-12T00:48:48.628Z,14.62
2018-08-12T00:51:17.327Z,14.68
2018-08-12T00:53:45.922Z,14.62
2018-08-12T00:56:14.447Z,14.55
2018-08-12T00:58:43.195Z,14.24
2018-08-12T01:01:12.076Z,14.03
2018-08-12T01:03:40.589Z,13.84
2018-08-12T01:06:09.329Z,13.74
2018-08-12T01:08:38.013Z,13.68
2018-08-12T01:11:07.040Z,13.78
2018-08-12T01:13:35.905Z,13.95
2018-08-12T01:16:04.840Z,13.91
2018-08-12T01:18:33.584Z,14.01
2018-08-12T01:21:02.112Z,14.03
2018-08-12T01:23:30.822Z,14.05
2018-08-12T01:25:59.568Z,14.08
2018-08-12T01:28:28.082Z,13.95
2018-08-12T01:30:56.845Z,13.89
2018-08-12T01:33:25.501Z,13.99
2018-08-12T01:35:54.304Z,14.01
2018-08-12T01:38:22.758Z,14.03
2018-08-12T01:40:51.321Z,14.06
2018-08-12T01:43:20.089Z,14.00
2018-08-12T01:45:48.943Z,14.11
2018-08-12T01:48:17.433Z,13.87
2018-08-12T01:50:46.227Z,13.76
2018-08-12T01:53:20.634Z,13.76
2018-08-12T01:55:49.606Z,13.70
2018-08-12T01:58:18.151Z,13.76
2018-08-12T02:00:46.868Z,13.82
2018-08-12T02:03:15.534Z,13.78
2018-08-12T02:05:44.901Z,13.68
2018-08-12T02:08:13.521Z,13.52
2018-08-12T02:10:42.110Z,13.54
2018-08-12T02:13:10.867Z,13.64
2018-08-12T02:15:39.525Z,13.68
2018-08-12T02:18:08.363Z,13.73
2018-08-12T02:20:37.085Z,13.73
2018-08-12T02:23:05.705Z,13.77
2018-08-12T02:25:34.398Z,13.78
2018-08-12T02:28:02.925Z,13.74
2018-08-12T02:30:31.617Z,13.74
2018-08-12T02:33:00.350Z,13.71
2018-08-12T02:35:29.046Z,13.69
2018-08-12T02:37:57.788Z,13.64
2018-08-12T02:40:26.521Z,13.62
2018-08-12T02:42:55.165Z,13.52
2018-08-12T02:45:23.761Z,13.49
2018-08-12T02:47:52.563Z,13.46
2018-08-12T02:50:21.251Z,13.47
2018-08-12T02:52:49.858Z,13.44
2018-08-12T02:55:18.428Z,13.42
2018-08-12T02:57:47.087Z,13.44
2018-08-12T03:00:15.833Z,13.35
2018-08-12T03:02:44.497Z,13.48
2018-08-12T03:05:13.301Z,13.36
2018-08-12T03:07:41.925Z,13.40
2018-08-12T03:10:10.475Z,13.47
2018-08-12T03:12:39.285Z,13.44
2018-08-12T03:15:09.421Z,13.30
2018-08-12T03:17:38.266Z,13.32
2018-08-12T03:20:08.654Z,13.34
2018-08-12T03:22:37.446Z,13.35
2018-08-12T03:25:07.602Z,13.21
2018-08-12T03:27:36.445Z,13.22
2018-08-12T03:30:06.833Z,13.17
2018-08-12T03:32:35.433Z,13.17
2018-08-12T03:35:04.072Z,13.13
2018-08-12T03:37:32.673Z,13.14
2018-08-12T03:40:01.620Z,13.09
2018-08-12T03:42:30.687Z,13.04
2018-08-12T03:44:59.441Z,12.96
2018-08-12T03:47:28.184Z,12.98
2018-08-12T03:49:56.745Z,13.01
2018-08-12T03:52:26.046Z,12.99
2018-08-12T03:54:55.010Z,12.93
2018-08-12T03:57:23.805Z,12.99
2018-08-12T03:59:52.744Z,13.05
2018-08-12T04:02:22.095Z,13.04
2018-08-12T04:04:50.931Z,13.03
2018-08-12T04:07:19.928Z,13.06
2018-08-12T04:09:48.593Z,12.90
2018-08-12T04:12:17.157Z,12.79
2018-08-12T04:14:46.042Z,12.77
2018-08-12T04:17:15.005Z,12.80
2018-08-12T04:19:43.478Z,12.74
2018-08-12T04:22:12.026Z,12.82
2018-08-12T04:24:40.481Z,12.82
2018-08-12T04:27:08.980Z,12.71
2018-08-12T04:29:37.453Z,12.80
2018-08-12T04:32:05.994Z,12.85
2018-08-12T04:34:34.468Z,13.06
2018-08-12T04:37:03.050Z,13.04
2018-08-12T04:39:31.819Z,13.07
2018-08-12T04:42:00.404Z,13.13
2018-08-12T04:44:28.909Z,13.30
2018-08-12T04:46:57.433Z,13.49
2018-08-12T04:49:25.977Z,13.66
2018-08-12T04:51:54.529Z,13.69
2018-08-12T04:54:23.026Z,13.84
2018-08-12T04:56:51.557Z,13.95
2018-08-12T04:59:20.045Z,14.04
2018-08-12T05:01:48.524Z,14.11
2018-08-12T05:04:17.025Z,14.19
2018-08-12T05:06:45.557Z,14.25
2018-08-12T05:09:14.118Z,14.42
2018-08-12T05:11:42.593Z,14.65
2018-08-12T05:14:11.125Z,14.78
2018-08-12T05:16:39.636Z,14.86
2018-08-12T05:19:08.150Z,14.90
2018-08-12T05:21:36.693Z,14.93
2018-08-12T05:24:05.291Z,15.13
2018-08-12T05:26:33.781Z,15.11
2018-08-12T05:29:02.309Z,15.16
2018-08-12T05:31:30.844Z,15.13
2018-08-12T05:33:59.393Z,15.10
2018-08-12T05:36:27.912Z,15.09
2018-08-12T05:38:56.428Z,15.19
2018-08-12T05:41:24.961Z,15.28
2018-08-12T05:43:55.217Z,15.27
2018-08-12T05:46:23.802Z,15.35
2018-08-12T05:48:52.316Z,15.37
2018-08-12T05:51:22.560Z,15.41
2018-08-12T05:53:51.136Z,15.42
2018-08-12T05:56:19.713Z,15.49
2018-08-12T05:58:48.225Z,15.65
2018-08-12T06:01:16.748Z,15.61
2018-08-12T06:03:45.589Z,15.61
2018-08-12T06:06:16.980Z,15.65
2018-08-12T06:08:45.574Z,15.81
2018-08-12T06:11:14.093Z,16.01
2018-08-12T06:13:42.626Z,15.91
2018-08-12T06:16:11.133Z,16.08
2018-08-12T06:18:39.674Z,16.36
2018-08-12T06:21:08.158Z,16.49
2018-08-12T06:23:36.728Z,16.55
2018-08-12T06:26:05.243Z,16.69
2018-08-12T06:28:33.769Z,16.89
2018-08-12T06:31:02.252Z,17.34
2018-08-12T06:33:30.940Z,17.63
2018-08-12T06:35:59.425Z,17.88
2018-08-12T06:38:27.966Z,18.15
2018-08-12T06:40:56.474Z,18.43
2018-08-12T06:43:24.969Z,18.48
2018-08-12T06:45:53.453Z,18.55
2018-08-12T06:48:22.008Z,18.50
2018-08-12T06:50:50.591Z,18.61
2018-08-12T06:53:19.088Z,18.78
2018-08-12T06:55:47.581Z,19.11
2018-08-12T06:58:16.124Z,19.10
2018-08-12T07:00:44.617Z,19.41
2018-08-12T07:03:13.105Z,19.99
2018-08-12T07:05:41.597Z,20.15
2018-08-12T07:08:10.115Z,20.03
2018-08-12T07:10:38.636Z,19.82
2018-08-12T07:13:07.169Z,20.20
2018-08-12T07:15:35.696Z,20.17
2018-08-12T07:18:04.848Z,20.35
2018-08-12T07:20:33.375Z,20.83
2018-08-12T07:23:01.885Z,21.23
2018-08-12T07:25:30.386Z,21.80
2018-08-12T07:27:58.884Z,22.06
2018-08-12T07:30:27.380Z,22.20
2018-08-12T07:32:55.889Z,22.56
2018-08-12T07:35:24.348Z,23.36
2018-08-12T07:37:52.836Z,24.57
2018-08-12T07:40:21.968Z,27.47
2018-08-12T07:42:51.249Z,29.53
2018-08-12T07:45:19.861Z,29.97
2018-08-12T07:47:48.408Z,29.48
2018-08-12T07:50:16.953Z,30.46
2018-08-12T07:52:45.972Z,30.37
2018-08-12T07:55:15.113Z,30.06
2018-08-12T07:57:44.412Z,30.19
2018-08-12T08:00:19.189Z,30.56
2018-08-12T08:02:47.836Z,31.40
2018-08-12T08:05:16.348Z,32.11
2018-08-12T08:07:44.865Z,31.77
2018-08-12T08:10:16.137Z,30.96
2018-08-12T08:12:44.685Z,31.30
2018-08-12T08:15:22.477Z,32.30
2018-08-12T08:17:50.984Z,30.46
2018-08-12T08:20:19.492Z,29.05
2018-08-12T08:22:47.998Z,30.14
2018-08-12T08:25:16.570Z,30.39
2018-08-12T08:27:45.009Z,31.79
2018-08-12T08:30:15.166Z,32.53
2018-08-12T08:32:43.732Z,30.51
2018-08-12T08:35:13.052Z,30.98
2018-08-12T08:37:41.820Z,30.81
2018-08-12T08:40:13.089Z,30.54
2018-08-12T08:42:41.572Z,30.49
2018-08-12T08:45:15.273Z,31.25
2018-08-12T08:47:45.265Z,31.87
2018-08-12T08:50:13.784Z,30.44
2018-08-12T08:52:42.561Z,31.56
2018-08-12T08:55:12.174Z,30.82
2018-08-12T08:57:41.555Z,30.46
2018-08-12T09:00:12.592Z,30.57
2018-08-12T09:02:41.790Z,30.18
2018-08-12T09:05:12.051Z,30.94
2018-08-12T09:07:41.103Z,30.94
2018-08-12T09:10:11.337Z,30.91
2018-08-12T09:12:39.817Z,31.24
2018-08-12T09:15:10.397Z,31.54
2018-08-12T09:17:39.221Z,29.85
2018-08-12T09:20:09.744Z,30.61
2018-08-12T09:22:38.301Z,30.88
2018-08-12T09:25:07.938Z,31.02
2018-08-12T09:27:36.725Z,30.56
2018-08-12T09:30:08.252Z,31.08
2018-08-12T09:32:36.688Z,30.77
2018-08-12T09:35:05.549Z,33.01
2018-08-12T09:37:34.908Z,33.88
2018-08-12T09:40:03.445Z,32.81
2018-08-12T09:42:32.342Z,33.77
2018-08-12T09:45:00.861Z,33.05
2018-08-12T09:47:29.329Z,32.74
2018-08-12T09:49:57.797Z,33.34
2018-08-12T09:52:26.293Z,34.07
2018-08-12T09:54:54.788Z,34.01
2018-08-12T09:57:23.284Z,32.52
2018-08-12T09:59:52.457Z,32.22
2018-08-12T10:02:21.017Z,33.39
2018-08-12T10:04:54.418Z,32.33
2018-08-12T10:07:22.892Z,32.75
2018-08-12T10:09:51.342Z,33.77
2018-08-12T10:12:19.885Z,32.66
2018-08-12T10:14:48.316Z,32.01
2018-08-12T10:17:16.829Z,31.97
2018-08-12T10:19:45.318Z,32.90
2018-08-12T10:22:13.862Z,33.51
2018-08-12T10:24:42.341Z,33.34
2018-08-12T10:27:10.828Z,32.93
2018-08-12T10:29:39.269Z,33.75
2018-08-12T10:32:07.833Z,34.01
2018-08-12T10:34:36.376Z,34.50
2018-08-12T10:37:04.897Z,35.46
2018-08-12T10:39:33.384Z,35.00
2018-08-12T10:42:01.974Z,33.50
2018-08-12T10:44:30.470Z,35.46
2018-08-12T10:46:58.973Z,36.91
2018-08-12T10:49:27.405Z,36.18
2018-08-12T10:51:55.953Z,35.09
2018-08-12T10:54:24.498Z,35.23
2018-08-12T10:56:53.019Z,34.90
2018-08-12T10:59:21.870Z,35.33
2018-08-12T11:01:50.419Z,36.21
2018-08-12T11:04:18.893Z,38.02
2018-08-12T11:06:49.340Z,39.02
2018-08-12T11:09:19.120Z,38.77
2018-08-12T11:11:47.765Z,39.44
2018-08-12T11:14:16.396Z,39.09
2018-08-12T11:16:44.921Z,37.69
2018-08-12T11:19:13.428Z,36.11
2018-08-12T11:21:42.074Z,37.06
2018-08-12T11:24:10.605Z,38.49
2018-08-12T11:26:39.084Z,40.18
2018-08-12T11:29:08.050Z,40.52
2018-08-12T11:31:36.637Z,38.55
2018-08-12T11:34:05.130Z,38.39
2018-08-12T11:36:33.644Z,38.50
2018-08-12T11:39:02.437Z,36.35
2018-08-12T11:41:30.923Z,35.29
2018-08-12T11:43:59.828Z,36.34
2018-08-12T11:46:29.273Z,38.40
2018-08-12T11:48:57.902Z,39.77
2018-08-12T11:51:26.397Z,39.99
2018-08-12T11:53:54.960Z,39.45
2018-08-12T11:56:23.521Z,37.07
2018-08-12T11:58:51.981Z,34.99
2018-08-12T12:01:20.437Z,35.17
2018-08-12T12:03:48.973Z,34.44
2018-08-12T12:06:17.412Z,34.25
2018-08-12T12:08:45.884Z,35.33
2018-08-12T12:11:14.321Z,36.96
2018-08-12T12:13:42.813Z,37.00
2018-08-12T12:16:11.286Z,35.81
2018-08-12T12:18:39.781Z,34.50
2018-08-12T12:21:08.248Z,34.58
2018-08-12T12:23:36.718Z,34.36
2018-08-12T12:26:05.222Z,35.77
2018-08-12T12:28:33.688Z,37.20
2018-08-12T12:31:02.185Z,35.52
2018-08-12T12:33:30.701Z,36.15
2018-08-12T12:35:59.207Z,36.40
2018-08-12T12:38:27.700Z,34.10
2018-08-12T12:40:56.154Z,34.65
2018-08-12T12:43:24.695Z,36.00
2018-08-12T12:45:53.161Z,35.83
2018-08-12T12:48:21.662Z,36.63
2018-08-12T12:50:50.142Z,35.18
2018-08-12T12:53:18.602Z,32.85
2018-08-12T12:55:47.064Z,33.23
2018-08-12T12:58:15.545Z,33.56
2018-08-12T13:00:43.997Z,35.27
2018-08-12T13:03:12.482Z,36.60
2018-08-12T13:05:40.961Z,37.95
2018-08-12T13:08:09.436Z,38.10
2018-08-12T13:10:37.864Z,38.17
2018-08-12T13:13:06.407Z,36.34
2018-08-12T13:15:34.877Z,37.25
2018-08-12T13:18:03.490Z,38.64
2018-08-12T13:20:31.983Z,39.41
2018-08-12T13:23:00.467Z,39.72
2018-08-12T13:25:28.968Z,39.58
2018-08-12T13:27:57.473Z,39.60
2018-08-12T13:30:25.978Z,40.71
2018-08-12T13:32:54.469Z,40.92
2018-08-12T13:35:22.944Z,40.42
2018-08-12T13:37:51.467Z,40.01
2018-08-12T13:40:19.997Z,40.64
2018-08-12T13:42:48.454Z,38.16
2018-08-12T13:45:16.960Z,36.26
2018-08-12T13:47:46.247Z,37.48
2018-08-12T13:50:19.571Z,38.85
2018-08-12T13:52:48.682Z,39.19
2018-08-12T13:55:17.404Z,36.03
2018-08-12T13:57:46.273Z,36.05
2018-08-12T14:00:16.421Z,34.77
2018-08-12T14:02:44.957Z,34.60
2018-08-12T14:05:15.441Z,34.83
2018-08-12T14:07:43.902Z,35.25
2018-08-12T14:10:12.546Z,37.10
2018-08-12T14:12:41.248Z,37.58
2018-08-12T14:15:12.417Z,37.80
2018-08-12T14:17:41.849Z,37.79
2018-08-12T14:20:11.557Z,38.44
2018-08-12T14:22:40.151Z,39.12
2018-08-12T14:25:09.330Z,37.84
2018-08-12T14:27:37.993Z,37.14
2018-08-12T14:30:08.853Z,38.81
2018-08-12T14:32:37.285Z,37.55
2018-08-12T14:35:06.313Z,37.01
2018-08-12T14:37:34.753Z,36.77
2018-08-12T14:40:03.338Z,37.91
2018-08-12T14:42:31.773Z,38.75
2018-08-12T14:45:00.237Z,39.00
2018-08-12T14:47:28.705Z,39.15
2018-08-12T14:49:57.185Z,40.24
2018-08-12T14:52:25.698Z,40.24
2018-08-12T14:54:54.211Z,40.40
2018-08-12T14:57:22.912Z,40.92
2018-08-12T14:59:51.449Z,40.83
2018-08-12T15:02:19.965Z,38.67
2018-08-12T15:04:48.440Z,35.73
2018-08-12T15:07:17.052Z,35.18
2018-08-12T15:09:45.459Z,35.31
2018-08-12T15:12:13.978Z,35.75
2018-08-12T15:14:42.453Z,36.14
2018-08-12T15:17:10.949Z,37.19
2018-08-12T15:19:39.439Z,37.88
2018-08-12T15:22:08.051Z,36.80
2018-08-12T15:24:36.548Z,35.81
2018-08-12T15:27:05.101Z,35.37
2018-08-12T15:29:33.573Z,36.17
2018-08-12T15:32:02.134Z,36.80
2018-08-12T15:34:30.589Z,38.14
2018-08-12T15:36:59.057Z,38.65
2018-08-12T15:39:27.544Z,38.95
2018-08-12T15:41:56.040Z,38.84
2018-08-12T15:44:24.533Z,38.75
2018-08-12T15:46:53.318Z,38.37
2018-08-12T15:49:21.758Z,37.37
2018-08-12T15:51:50.289Z,36.56
2018-08-12T15:54:18.752Z,37.15
2018-08-12T15:56:47.273Z,37.90
2018-08-12T15:59:15.777Z,37.34
2018-08-12T16:01:45.175Z,37.32
2018-08-12T16:04:13.630Z,37.80
2018-08-12T16:06:42.118Z,36.97
2018-08-12T16:09:11.681Z,35.82
2018-08-12T16:11:40.182Z,35.50
2018-08-12T16:14:09.193Z,35.40
2018-08-12T16:16:37.686Z,35.79
2018-08-12T16:19:06.185Z,35.76
2018-08-12T16:21:34.689Z,35.34
2018-08-12T16:24:03.156Z,34.50
2018-08-12T16:26:31.619Z,34.62
2018-08-12T16:29:00.134Z,35.59
2018-08-12T16:31:28.689Z,35.38
2018-08-12T16:33:57.154Z,35.46
2018-08-12T16:36:25.674Z,35.85
2018-08-12T16:38:54.161Z,36.15
2018-08-12T16:41:22.617Z,36.17
2018-08-12T16:43:51.092Z,35.90
2018-08-12T16:46:19.599Z,35.15
2018-08-12T16:48:48.134Z,34.63
2018-08-12T16:52:47.478Z,34.31
2018-08-12T16:55:18.413Z,34.60
2018-08-12T16:57:47.538Z,34.52
2018-08-12T17:00:17.483Z,34.49
2018-08-12T17:02:46.520Z,34.36
2018-08-12T17:05:16.569Z,34.19
2018-08-12T17:07:45.364Z,33.89
2018-08-12T17:10:15.061Z,33.82
2018-08-12T17:12:43.618Z,33.06
2018-08-12T17:15:15.061Z,33.20
2018-08-12T17:17:43.569Z,33.33
2018-08-12T17:20:13.496Z,33.67
2018-08-12T17:22:42.769Z,33.73
2018-08-12T17:25:13.449Z,33.69
2018-08-12T17:27:41.980Z,33.47
2018-08-12T17:30:11.673Z,33.02
2018-08-12T17:32:40.227Z,32.85
2018-08-12T17:35:09.484Z,32.34
2018-08-12T17:37:38.293Z,31.90
2018-08-12T17:40:10.045Z,31.59
2018-08-12T17:42:38.565Z,31.69
2018-08-12T17:45:08.457Z,31.62
2018-08-12T17:47:37.311Z,31.65
2018-08-12T17:50:06.649Z,31.57
2018-08-12T17:52:35.116Z,31.17
2018-08-12T17:55:03.624Z,30.70
2018-08-12T17:57:32.255Z,30.40
2018-08-12T18:00:01.426Z,29.95
2018-08-12T18:02:29.878Z,29.45
2018-08-12T18:04:58.313Z,29.11
2018-08-12T18:07:26.786Z,28.91
2018-08-12T18:09:56.149Z,28.58
2018-08-12T18:12:24.612Z,28.35
2018-08-12T18:14:54.017Z,28.11
2018-08-12T18:17:22.457Z,27.80
2018-08-12T18:19:51.653Z,27.65
2018-08-12T18:22:20.131Z,27.55
2018-08-12T18:24:48.616Z,27.28
2018-08-12T18:27:17.052Z,27.06
2018-08-12T18:29:45.556Z,26.99
2018-08-12T18:32:14.017Z,26.74
2018-08-12T18:34:42.611Z,26.57
2018-08-12T18:37:11.078Z,26.38
2018-08-12T18:39:39.545Z,26.23
2018-08-12T18:42:10.979Z,26.07
2018-08-12T18:44:39.441Z,25.98
2018-08-12T18:47:07.941Z,25.82
2018-08-12T18:49:36.450Z,25.74
2018-08-12T18:52:05.003Z,25.63
2018-08-12T18:54:34.173Z,25.50
2018-08-12T18:57:03.620Z,25.39
2018-08-12T18:59:32.147Z,25.10
2018-08-12T19:02:01.609Z,24.99
2018-08-12T19:04:31.064Z,24.88
2018-08-12T19:06:59.601Z,24.86
2018-08-12T19:09:28.622Z,24.81
2018-08-12T19:11:57.101Z,24.57
2018-08-12T19:14:25.881Z,24.44
2018-08-12T19:16:54.346Z,24.37
2018-08-12T19:19:22.811Z,24.28
2018-08-12T19:21:51.297Z,24.14
2018-08-12T19:24:21.372Z,24.07
2018-08-12T19:26:49.809Z,23.96
2018-08-12T19:29:18.295Z,23.90
2018-08-12T19:33:15.917Z,23.82
2018-08-12T19:35:44.421Z,23.60
2018-08-12T19:38:12.888Z,23.59
2018-08-12T19:40:41.396Z,23.55
2018-08-12T19:43:09.927Z,23.53
2018-08-12T19:45:38.414Z,23.43
2018-08-12T19:48:06.884Z,23.42
2018-08-12T19:50:35.392Z,23.31
2018-08-12T19:53:03.986Z,23.33
2018-08-12T19:55:32.480Z,23.29
2018-08-12T19:58:00.961Z,23.18
2018-08-12T20:00:29.523Z,23.08
2018-08-12T20:02:58.047Z,23.06
2018-08-12T20:05:26.542Z,23.03
2018-08-12T20:07:55.013Z,22.97
2018-08-12T20:10:23.489Z,22.80
2018-08-12T20:12:52.001Z,22.81
2018-08-12T20:15:20.517Z,22.69
2018-08-12T20:17:49.111Z,22.59
2018-08-12T20:20:17.633Z,22.57
2018-08-12T20:22:46.153Z,22.46
2018-08-12T20:25:14.690Z,22.42
2018-08-12T20:27:43.481Z,22.34
2018-08-12T20:30:12.842Z,22.31
2018-08-12T20:32:41.812Z,22.27
2018-08-12T20:35:10.378Z,22.07
2018-08-12T20:37:38.882Z,21.93
2018-08-12T20:40:07.920Z,21.91
2018-08-12T20:42:36.384Z,21.80
2018-08-12T20:45:05.445Z,21.77
2018-08-12T20:47:33.982Z,21.77
2018-08-12T20:50:02.797Z,21.79
2018-08-12T20:52:31.274Z,21.79
2018-08-12T20:54:59.788Z,21.67
2018-08-12T20:57:28.261Z,21.59
2018-08-12T20:59:56.798Z,21.61
2018-08-12T21:02:26.151Z,21.36
2018-08-12T21:04:54.618Z,21.20
2018-08-12T21:07:23.112Z,21.12
2018-08-12T21:09:52.010Z,21.28
2018-08-12T21:12:20.529Z,21.28
2018-08-12T21:14:49.821Z,21.16
2018-08-12T21:17:18.318Z,21.23
2018-08-12T21:19:46.773Z,21.29
2018-08-12T21:22:15.293Z,21.15
2018-08-12T21:24:43.785Z,21.07
2018-08-12T21:27:12.276Z,20.97
2018-08-12T21:29:40.739Z,21.00
2018-08-12T21:32:09.573Z,20.93
2018-08-12T21:34:38.072Z,20.85
2018-08-12T21:37:06.613Z,20.76
2018-08-12T21:39:35.157Z,20.75
2018-08-12T21:42:03.673Z,20.78
2018-08-12T21:44:32.121Z,20.75
2018-08-12T21:47:00.657Z,20.71
2018-08-12T21:49:29.158Z,20.67
2018-08-12T21:51:57.665Z,20.57
2018-08-12T21:54:26.162Z,20.46
2018-08-12T21:56:54.683Z,20.47
2018-08-12T21:59:23.223Z,20.48
2018-08-12T22:01:51.849Z,20.38
2018-08-12T22:04:20.385Z,20.33
2018-08-12T22:06:49.574Z,20.30
2018-08-12T22:09:18.070Z,20.19
2018-08-12T22:11:46.572Z,20.18
2018-08-12T22:14:15.053Z,20.10
2018-08-12T22:16:43.644Z,20.11
2018-08-12T22:19:12.120Z,20.12
2018-08-12T22:21:40.625Z,20.00
2018-08-12T22:24:09.117Z,20.05
2018-08-12T22:26:37.625Z,20.02
2018-08-12T22:29:06.357Z,20.02
2018-08-12T22:31:34.927Z,20.00
2018-08-12T22:34:03.428Z,19.84
2018-08-12T22:36:31.956Z,19.69
2018-08-12T22:39:00.489Z,19.53
2018-08-12T22:41:28.993Z,19.38
2018-08-12T22:43:57.508Z,19.23
2018-08-12T22:46:25.989Z,19.23
2018-08-12T22:48:54.453Z,19.30
2018-08-12T22:51:22.932Z,19.26
2018-08-12T22:53:51.430Z,19.12
2018-08-12T22:56:19.898Z,19.15
2018-08-12T22:58:48.432Z,19.33
2018-08-12T23:01:16.977Z,19.46
2018-08-12T23:03:45.497Z,19.45
2018-08-12T23:06:14.011Z,19.44
2018-08-12T23:08:42.559Z,19.41
2018-08-12T23:11:11.028Z,19.35
2018-08-12T23:13:39.504Z,19.31
2018-08-12T23:16:20.522Z,19.39
2018-08-12T23:18:49.046Z,19.44
2018-08-12T23:21:18.469Z,19.41
2018-08-12T23:23:52.952Z,19.34
2018-08-12T23:26:22.705Z,19.32
2018-08-12T23:28:51.248Z,19.32
2018-08-12T23:31:19.738Z,19.22
2018-08-12T23:33:48.289Z,19.14
2018-08-12T23:36:16.801Z,19.06
2018-08-12T23:38:45.289Z,19.04
2018-08-12T23:41:14.046Z,19.03
2018-08-12T23:43:42.579Z,19.01
2018-08-12T23:46:11.725Z,19.05
2018-08-12T23:48:40.272Z,18.96
2018-08-12T23:51:08.977Z,18.75
2018-08-12T23:53:37.494Z,18.72
2018-08-12T23:56:06.029Z,18.60
2018-08-12T23:58:34.539Z,18.70
